PWSweather.com
Personal Weather Stations
Station Observations
EMMBROOK1
Emmbrook, WokinghamGB

EmmbrookWokinghamGB

Lat: 51.42698, Lon: -0.850575

Elevation: 144

Station Type: WH1081

http://www.wokinghamweather.co.uk

Latest ConditionsUpdated 10:00:03 AM GMT Tuesday, Oct 15, 2019
Currently Today's Max Today's Min Today's Average
Temperature 53.8°F12.1°C 53.8°F12.1°C 50.7°F10.4°C 51.4°F10.8°C
Dew Point 53.0°F11.7°C 53.0°F11.7°C 50.5°F10.3°C 51.0°F10.6°C
Winds 2.0 mph SW3.2 kmh SW 6.5 mph -10.5 kmh - - 2.2 mph 3.5 kmh
Wind Gusts 3.1 mph5.0 kmh 9.8 mph15.8 kmh - -
Humidity 97% 99% 97% 99%
Pressure 29.67 in1004.7 mb 29.67 in1004.7 mb 29.58 in1001.7 mb -
Hour Temp Dew Point Humidity Winds Wind Gusts Pressure Precip Precip Rate Daily Precip Total
10:00 AM 53.8°F12.1°C 53.0°F11.7°C 97% 2.0 mph SW3.2 kmh SW 3.1 mph5.0 kmh 29.67 in1004.7 mb 0.00 in0.0 mm 0.00 in0.0 mm 0.00 in0.0 mm
09:45 AM 53.4°F11.9°C 52.9°F11.6°C 98% 2.5 mph S4.0 kmh S 4.5 mph7.2 kmh 29.67 in1004.7 mb 0.00 in0.0 mm 0.00 in0.0 mm 0.00 in0.0 mm
09:30 AM 53.1°F11.7°C 52.5°F11.4°C 98% 2.6 mph SSE4.2 kmh SSE 3.8 mph6.1 kmh 29.67 in1004.7 mb 0.00 in0.0 mm 0.00 in0.0 mm 0.00 in0.0 mm
09:15 AM 52.7°F11.5°C 52.2°F11.2°C 98% 1.3 mph SW2.1 kmh SW 2.2 mph3.5 kmh 29.66 in1004.4 mb 0.00 in0.0 mm 0.00 in0.0 mm 0.00 in0.0 mm
09:00 AM 52.5°F11.4°C 52.0°F11.1°C 98% 1.9 mph S3.1 kmh S 2.2 mph3.5 kmh 29.66 in1004.4 mb 0.00 in0.0 mm 0.00 in0.0 mm 0.00 in0.0 mm
08:45 AM 52.0°F11.1°C 51.4°F10.8°C 98% 1.4 mph SE2.3 kmh SE 2.2 mph3.5 kmh 29.66 in1004.4 mb 0.00 in0.0 mm 0.00 in0.0 mm 0.00 in0.0 mm
08:30 AM 51.6°F10.9°C 51.4°F10.8°C 99% 1.3 mph S2.1 kmh S 2.2 mph3.5 kmh 29.65 in1004.1 mb 0.00 in0.0 mm 0.00 in0.0 mm 0.00 in0.0 mm
08:15 AM 51.6°F10.9°C 51.4°F10.8°C 99% 0.8 mph SW1.3 kmh SW 1.6 mph2.6 kmh 29.65 in1004.1 mb 0.00 in0.0 mm 0.00 in0.0 mm 0.00 in0.0 mm
08:00 AM 51.4°F10.8°C 51.2°F10.7°C 99% 0.4 mph SSE0.6 kmh SSE 0.7 mph1.1 kmh 29.64 in1003.7 mb 0.00 in0.0 mm 0.00 in0.0 mm 0.00 in0.0 mm
07:45 AM 51.3°F10.7°C 51.0°F10.6°C 99% 1.4 mph SSE2.3 kmh SSE 2.2 mph3.5 kmh 29.65 in1004.1 mb 0.00 in0.0 mm 0.00 in0.0 mm 0.00 in0.0 mm
07:30 AM 51.1°F10.6°C 50.8°F10.4°C 99% 0.7 mph SSW1.1 kmh SSW 1.6 mph2.6 kmh 29.64 in1003.7 mb 0.00 in0.0 mm 0.00 in0.0 mm 0.00 in0.0 mm
07:15 AM 51.1°F10.6°C 50.8°F10.4°C 99% 0.7 mph SW1.1 kmh SW 2.2 mph3.5 kmh 29.64 in1003.7 mb 0.00 in0.0 mm 0.00 in0.0 mm 0.00 in0.0 mm
07:00 AM 51.1°F10.6°C 50.8°F10.4°C 99% 0.3 mph WSW0.5 kmh WSW 0.7 mph1.1 kmh 29.64 in1003.7 mb 0.00 in0.0 mm 0.00 in0.0 mm 0.00 in0.0 mm
06:45 AM 50.9°F10.5°C 50.6°F10.3°C 99% 0.4 mph S0.6 kmh S 0.7 mph1.1 kmh 29.64 in1003.7 mb 0.00 in0.0 mm 0.00 in0.0 mm 0.00 in0.0 mm
06:30 AM 50.9°F10.5°C 50.6°F10.3°C 99% 0.4 mph SW0.6 kmh SW 0.7 mph1.1 kmh 29.63 in1003.4 mb 0.00 in0.0 mm 0.00 in0.0 mm 0.00 in0.0 mm
06:15 AM 50.9°F10.5°C 50.6°F10.3°C 99% 0.7 mph SE1.1 kmh SE 1.6 mph2.6 kmh 29.63 in1003.4 mb 0.00 in0.0 mm 0.00 in0.0 mm 0.00 in0.0 mm
06:00 AM 50.9°F10.5°C 50.6°F10.3°C 99% 0.7 mph SSW1.1 kmh SSW 2.2 mph3.5 kmh 29.63 in1003.4 mb 0.00 in0.0 mm 0.00 in0.0 mm 0.00 in0.0 mm
05:45 AM 50.9°F10.5°C 50.6°F10.3°C 99% 1.8 mph WSW2.9 kmh WSW 3.1 mph5.0 kmh 29.62 in1003.0 mb 0.00 in0.0 mm 0.00 in0.0 mm 0.00 in0.0 mm
05:30 AM 50.9°F10.5°C 50.6°F10.3°C 99% 1.3 mph SW2.1 kmh SW 3.1 mph5.0 kmh 29.63 in1003.4 mb 0.00 in0.0 mm 0.00 in0.0 mm 0.00 in0.0 mm
05:15 AM 50.9°F10.5°C 50.6°F10.3°C 99% 0.5 mph SSW0.8 kmh SSW 1.6 mph2.6 kmh 29.63 in1003.4 mb 0.00 in0.0 mm 0.00 in0.0 mm 0.00 in0.0 mm
05:00 AM 50.9°F10.5°C 50.6°F10.3°C 99% 0.8 mph SSW1.3 kmh SSW 1.6 mph2.6 kmh 29.62 in1003.0 mb 0.00 in0.0 mm 0.00 in0.0 mm 0.00 in0.0 mm
04:45 AM 50.9°F10.5°C 50.6°F10.3°C 99% 1.3 mph SW2.1 kmh SW 3.1 mph5.0 kmh 29.62 in1003.0 mb 0.00 in0.0 mm 0.00 in0.0 mm 0.00 in0.0 mm
04:30 AM 50.9°F10.5°C 50.6°F10.3°C 99% 2.3 mph SW3.7 kmh SW 3.1 mph5.0 kmh 29.61 in1002.7 mb 0.00 in0.0 mm 0.00 in0.0 mm 0.00 in0.0 mm
04:15 AM 50.9°F10.5°C 50.6°F10.3°C 99% 2.0 mph SW3.2 kmh SW 3.1 mph5.0 kmh 29.61 in1002.7 mb 0.00 in0.0 mm 0.00 in0.0 mm 0.00 in0.0 mm
04:00 AM 50.9°F10.5°C 50.6°F10.3°C 99% 1.5 mph SW2.4 kmh SW 2.2 mph3.5 kmh 29.60 in1002.4 mb 0.00 in0.0 mm 0.00 in0.0 mm 0.00 in0.0 mm
03:45 AM 50.9°F10.5°C 50.6°F10.3°C 99% 3.2 mph WSW5.1 kmh WSW 4.5 mph7.2 kmh 29.60 in1002.4 mb 0.00 in0.0 mm 0.00 in0.0 mm 0.00 in0.0 mm
03:30 AM 50.9°F10.5°C 50.6°F10.3°C 99% 2.7 mph WSW4.3 kmh WSW 4.5 mph7.2 kmh 29.60 in1002.4 mb 0.00 in0.0 mm 0.00 in0.0 mm 0.00 in0.0 mm
03:15 AM 50.7°F10.4°C 50.5°F10.3°C 99% 3.6 mph SW5.8 kmh SW 5.4 mph8.7 kmh 29.60 in1002.4 mb 0.00 in0.0 mm 0.00 in0.0 mm 0.00 in0.0 mm
03:00 AM 50.7°F10.4°C 50.5°F10.3°C 99% 4.0 mph SW6.4 kmh SW 6.9 mph11.1 kmh 29.60 in1002.4 mb 0.00 in0.0 mm 0.00 in0.0 mm 0.00 in0.0 mm
02:45 AM 50.9°F10.5°C 50.6°F10.3°C 99% 4.0 mph SW6.4 kmh SW 6.0 mph9.7 kmh 29.61 in1002.7 mb 0.00 in0.0 mm 0.00 in0.0 mm 0.00 in0.0 mm
02:30 AM 51.1°F10.6°C 50.8°F10.4°C 99% 4.9 mph WSW7.9 kmh WSW 8.3 mph13.4 kmh 29.60 in1002.4 mb 0.00 in0.0 mm 0.00 in0.0 mm 0.00 in0.0 mm
02:15 AM 51.1°F10.6°C 50.8°F10.4°C 99% 3.5 mph WSW5.6 kmh WSW 5.4 mph8.7 kmh 29.60 in1002.4 mb 0.00 in0.0 mm 0.00 in0.0 mm 0.00 in0.0 mm
02:00 AM 51.3°F10.7°C 51.0°F10.6°C 99% 3.1 mph SW5.0 kmh SW 5.4 mph8.7 kmh 29.60 in1002.4 mb 0.00 in0.0 mm 0.00 in0.0 mm 0.00 in0.0 mm
01:45 AM 51.3°F10.7°C 51.0°F10.6°C 99% 3.5 mph SW5.6 kmh SW 6.9 mph11.1 kmh 29.61 in1002.7 mb 0.00 in0.0 mm 0.00 in0.0 mm 0.00 in0.0 mm
01:30 AM 51.4°F10.8°C 51.2°F10.7°C 99% 3.8 mph WSW6.1 kmh WSW 6.9 mph11.1 kmh 29.61 in1002.7 mb 0.00 in0.0 mm 0.00 in0.0 mm 0.00 in0.0 mm
01:15 AM 51.4°F10.8°C 51.2°F10.7°C 99% 2.7 mph S4.3 kmh S 5.4 mph8.7 kmh 29.62 in1003.0 mb 0.00 in0.0 mm 0.00 in0.0 mm 0.00 in0.0 mm
01:00 AM 51.3°F10.7°C 51.0°F10.6°C 99% 3.4 mph SW5.5 kmh SW 7.6 mph12.2 kmh 29.61 in1002.7 mb 0.00 in0.0 mm 0.00 in0.0 mm 0.00 in0.0 mm
12:45 AM 51.4°F10.8°C 51.2°F10.7°C 99% 2.7 mph WSW4.3 kmh WSW 8.3 mph13.4 kmh 29.61 in1002.7 mb 0.00 in0.0 mm 0.00 in0.0 mm 0.00 in0.0 mm
12:30 AM 51.3°F10.7°C 51.0°F10.6°C 99% 3.5 mph SW5.6 kmh SW 6.0 mph9.7 kmh 29.60 in1002.4 mb 0.00 in0.0 mm 0.00 in0.0 mm 0.00 in0.0 mm
12:15 AM 51.3°F10.7°C 51.0°F10.6°C 99% 5.5 mph WSW8.9 kmh WSW 7.6 mph12.2 kmh 29.59 in1002.0 mb 0.00 in0.0 mm 0.00 in0.0 mm 0.00 in0.0 mm
12:00 AM 51.3°F10.7°C 51.0°F10.6°C 99% 6.5 mph SW10.5 kmh SW 9.8 mph15.8 kmh 29.58 in1001.7 mb 0.00 in0.0 mm 0.00 in0.0 mm 0.00 in0.0 mm